sensor_id;sensor_type;location;lat;lon;timestamp;P1;durP1;ratioP1;P2;durP2;ratioP2
15645;SDS011;7922;43.622;1.476;2023-05-02T00:01:28;2.70;;;2.30;;
15645;SDS011;7922;43.622;1.476;2023-05-02T00:03:54;8.43;;;4.23;;
15645;SDS011;7922;43.622;1.476;2023-05-02T00:06:19;11.47;;;6.60;;
15645;SDS011;7922;43.622;1.476;2023-05-02T00:08:44;11.73;;;7.37;;
15645;SDS011;7922;43.622;1.476;2023-05-02T00:11:10;13.80;;;9.87;;
15645;SDS011;7922;43.622;1.476;2023-05-02T00:13:35;15.80;;;12.13;;
15645;SDS011;7922;43.622;1.476;2023-05-02T00:16:00;16.57;;;11.83;;
15645;SDS011;7922;43.622;1.476;2023-05-02T00:18:26;19.03;;;11.93;;
15645;SDS011;7922;43.622;1.476;2023-05-02T00:20:54;18.53;;;11.40;;
15645;SDS011;7922;43.622;1.476;2023-05-02T00:23:19;13.77;;;8.87;;
15645;SDS011;7922;43.622;1.476;2023-05-02T00:25:45;12.00;;;9.00;;
15645;SDS011;7922;43.622;1.476;2023-05-02T00:28:10;9.60;;;7.90;;
15645;SDS011;7922;43.622;1.476;2023-05-02T00:30:35;10.20;;;6.13;;
15645;SDS011;7922;43.622;1.476;2023-05-02T00:33:01;9.50;;;6.10;;
15645;SDS011;7922;43.622;1.476;2023-05-02T00:35:26;9.73;;;5.70;;
15645;SDS011;7922;43.622;1.476;2023-05-02T00:37:51;6.37;;;5.47;;
15645;SDS011;7922;43.622;1.476;2023-05-02T00:40:17;8.60;;;5.77;;
15645;SDS011;7922;43.622;1.476;2023-05-02T00:42:42;9.07;;;5.83;;
15645;SDS011;7922;43.622;1.476;2023-05-02T00:45:08;8.40;;;5.87;;
15645;SDS011;7922;43.622;1.476;2023-05-02T00:47:33;14.50;;;8.83;;
15645;SDS011;7922;43.622;1.476;2023-05-02T00:49:59;10.67;;;8.83;;
15645;SDS011;7922;43.622;1.476;2023-05-02T00:52:24;10.07;;;8.33;;
15645;SDS011;7922;43.622;1.476;2023-05-02T00:54:49;11.93;;;8.63;;
15645;SDS011;7922;43.622;1.476;2023-05-02T00:57:15;11.97;;;7.97;;
15645;SDS011;7922;43.622;1.476;2023-05-02T00:59:40;9.80;;;7.30;;
15645;SDS011;7922;43.622;1.476;2023-05-02T01:04:59;5.93;;;4.10;;
15645;SDS011;7922;43.622;1.476;2023-05-02T01:15:18;3.50;;;2.60;;
15645;SDS011;7922;43.622;1.476;2023-05-02T01:17:45;7.67;;;3.27;;
15645;SDS011;7922;43.622;1.476;2023-05-02T01:20:13;5.23;;;2.90;;
15645;SDS011;7922;43.622;1.476;2023-05-02T01:22:44;5.37;;;2.90;;
15645;SDS011;7922;43.622;1.476;2023-05-02T01:30:48;6.63;;;3.20;;
15645;SDS011;7922;43.622;1.476;2023-05-02T01:33:15;9.53;;;3.10;;
15645;SDS011;7922;43.622;1.476;2023-05-02T01:35:42;4.77;;;2.50;;
15645;SDS011;7922;43.622;1.476;2023-05-02T01:38:12;6.93;;;3.10;;
15645;SDS011;7922;43.622;1.476;2023-05-02T01:40:38;3.17;;;2.87;;
15645;SDS011;7922;43.622;1.476;2023-05-02T01:43:08;6.27;;;3.33;;
15645;SDS011;7922;43.622;1.476;2023-05-02T01:45:35;5.37;;;3.10;;
15645;SDS011;7922;43.622;1.476;2023-05-02T01:48:03;4.37;;;2.97;;
15645;SDS011;7922;43.622;1.476;2023-05-02T01:50:31;5.50;;;2.83;;
15645;SDS011;7922;43.622;1.476;2023-05-02T01:52:56;4.50;;;3.10;;
15645;SDS011;7922;43.622;1.476;2023-05-02T01:55:22;5.13;;;3.10;;
15645;SDS011;7922;43.622;1.476;2023-05-02T01:57:49;5.33;;;2.90;;
15645;SDS011;7922;43.622;1.476;2023-05-02T02:00:18;3.83;;;2.57;;
15645;SDS011;7922;43.622;1.476;2023-05-02T02:02:45;4.87;;;3.00;;
15645;SDS011;7922;43.622;1.476;2023-05-02T02:05:11;5.93;;;3.00;;
15645;SDS011;7922;43.622;1.476;2023-05-02T02:07:37;4.77;;;3.00;;
15645;SDS011;7922;43.622;1.476;2023-05-02T02:10:03;5.30;;;3.30;;
15645;SDS011;7922;43.622;1.476;2023-05-02T02:12:35;6.63;;;3.50;;
15645;SDS011;7922;43.622;1.476;2023-05-02T02:15:05;5.17;;;3.20;;
15645;SDS011;7922;43.622;1.476;2023-05-02T02:17:54;2.93;;;2.63;;
15645;SDS011;7922;43.622;1.476;2023-05-02T02:20:21;5.70;;;2.77;;
15645;SDS011;7922;43.622;1.476;2023-05-02T02:22:46;4.17;;;3.10;;
15645;SDS011;7922;43.622;1.476;2023-05-02T02:25:15;3.53;;;2.63;;
15645;SDS011;7922;43.622;1.476;2023-05-02T02:27:42;7.23;;;3.10;;
15645;SDS011;7922;43.622;1.476;2023-05-02T02:30:08;3.40;;;2.67;;
15645;SDS011;7922;43.622;1.476;2023-05-02T02:32:34;5.73;;;3.23;;
15645;SDS011;7922;43.622;1.476;2023-05-02T02:35:00;7.33;;;3.43;;
15645;SDS011;7922;43.622;1.476;2023-05-02T02:37:33;3.37;;;2.80;;
15645;SDS011;7922;43.622;1.476;2023-05-02T02:42:38;5.77;;;2.93;;
15645;SDS011;7922;43.622;1.476;2023-05-02T02:56:25;3.47;;;3.00;;
15645;SDS011;7922;43.622;1.476;2023-05-02T03:01:19;5.40;;;2.90;;
15645;SDS011;7922;43.622;1.476;2023-05-02T03:03:46;6.60;;;3.10;;
15645;SDS011;7922;43.622;1.476;2023-05-02T03:06:13;5.97;;;3.30;;
15645;SDS011;7922;43.622;1.476;2023-05-02T03:08:40;6.60;;;3.17;;
15645;SDS011;7922;43.622;1.476;2023-05-02T03:11:07;4.87;;;3.10;;
15645;SDS011;7922;43.622;1.476;2023-05-02T03:13:32;6.47;;;3.27;;
15645;SDS011;7922;43.622;1.476;2023-05-02T03:18:54;5.60;;;3.23;;
15645;SDS011;7922;43.622;1.476;2023-05-02T03:21:19;5.43;;;3.20;;
15645;SDS011;7922;43.622;1.476;2023-05-02T03:23:44;6.03;;;3.30;;
15645;SDS011;7922;43.622;1.476;2023-05-02T03:26:10;6.70;;;3.50;;
15645;SDS011;7922;43.622;1.476;2023-05-02T03:28:35;6.27;;;3.60;;
15645;SDS011;7922;43.622;1.476;2023-05-02T03:31:00;5.27;;;3.03;;
15645;SDS011;7922;43.622;1.476;2023-05-02T03:33:26;3.87;;;3.33;;
15645;SDS011;7922;43.622;1.476;2023-05-02T03:35:51;8.57;;;4.43;;
15645;SDS011;7922;43.622;1.476;2023-05-02T03:38:16;6.10;;;3.87;;
15645;SDS011;7922;43.622;1.476;2023-05-02T03:40:42;9.07;;;4.00;;
15645;SDS011;7922;43.622;1.476;2023-05-02T03:43:07;5.87;;;3.50;;
15645;SDS011;7922;43.622;1.476;2023-05-02T03:45:33;8.70;;;3.70;;
15645;SDS011;7922;43.622;1.476;2023-05-02T03:47:58;9.03;;;3.70;;
15645;SDS011;7922;43.622;1.476;2023-05-02T03:50:23;7.50;;;3.67;;
15645;SDS011;7922;43.622;1.476;2023-05-02T03:52:49;4.40;;;3.27;;
15645;SDS011;7922;43.622;1.476;2023-05-02T03:55:14;6.60;;;3.60;;
15645;SDS011;7922;43.622;1.476;2023-05-02T03:57:39;5.40;;;3.97;;
15645;SDS011;7922;43.622;1.476;2023-05-02T04:00:05;6.67;;;4.00;;
15645;SDS011;7922;43.622;1.476;2023-05-02T04:02:31;6.40;;;4.30;;
15645;SDS011;7922;43.622;1.476;2023-05-02T04:04:56;6.10;;;3.43;;
15645;SDS011;7922;43.622;1.476;2023-05-02T04:07:21;5.10;;;3.60;;
15645;SDS011;7922;43.622;1.476;2023-05-02T04:09:47;4.90;;;3.70;;
15645;SDS011;7922;43.622;1.476;2023-05-02T04:12:13;6.10;;;3.50;;
15645;SDS011;7922;43.622;1.476;2023-05-02T04:14:39;6.50;;;3.90;;
15645;SDS011;7922;43.622;1.476;2023-05-02T04:17:04;8.03;;;4.57;;
15645;SDS011;7922;43.622;1.476;2023-05-02T04:19:30;5.43;;;3.80;;
15645;SDS011;7922;43.622;1.476;2023-05-02T04:21:55;5.57;;;3.83;;
15645;SDS011;7922;43.622;1.476;2023-05-02T04:24:21;6.90;;;4.03;;
15645;SDS011;7922;43.622;1.476;2023-05-02T04:26:46;5.50;;;3.73;;
15645;SDS011;7922;43.622;1.476;2023-05-02T04:29:11;6.03;;;3.90;;
15645;SDS011;7922;43.622;1.476;2023-05-02T04:31:37;5.90;;;4.30;;
15645;SDS011;7922;43.622;1.476;2023-05-02T04:34:02;6.83;;;4.47;;
15645;SDS011;7922;43.622;1.476;2023-05-02T04:36:27;6.27;;;4.20;;
15645;SDS011;7922;43.622;1.476;2023-05-02T04:38:53;7.17;;;4.03;;
15645;SDS011;7922;43.622;1.476;2023-05-02T04:41:18;6.63;;;4.50;;
15645;SDS011;7922;43.622;1.476;2023-05-02T04:43:44;5.47;;;4.30;;
15645;SDS011;7922;43.622;1.476;2023-05-02T04:46:09;7.37;;;4.17;;
15645;SDS011;7922;43.622;1.476;2023-05-02T04:48:34;4.53;;;4.10;;
15645;SDS011;7922;43.622;1.476;2023-05-02T04:50:59;4.83;;;3.83;;
15645;SDS011;7922;43.622;1.476;2023-05-02T04:53:25;5.53;;;4.47;;
15645;SDS011;7922;43.622;1.476;2023-05-02T04:55:50;5.33;;;4.00;;
15645;SDS011;7922;43.622;1.476;2023-05-02T04:58:15;7.40;;;4.07;;
15645;SDS011;7922;43.622;1.476;2023-05-02T05:00:41;8.30;;;4.63;;
15645;SDS011;7922;43.622;1.476;2023-05-02T05:03:06;8.30;;;4.77;;
15645;SDS011;7922;43.622;1.476;2023-05-02T05:05:32;7.83;;;4.20;;
15645;SDS011;7922;43.622;1.476;2023-05-02T05:07:57;5.07;;;3.97;;
15645;SDS011;7922;43.622;1.476;2023-05-02T05:10:22;7.33;;;3.70;;
15645;SDS011;7922;43.622;1.476;2023-05-02T05:12:48;5.43;;;4.03;;
15645;SDS011;7922;43.622;1.476;2023-05-02T05:15:13;7.03;;;4.00;;
15645;SDS011;7922;43.622;1.476;2023-05-02T05:17:39;10.27;;;4.53;;
15645;SDS011;7922;43.622;1.476;2023-05-02T05:20:04;8.53;;;4.50;;
15645;SDS011;7922;43.622;1.476;2023-05-02T05:22:30;5.07;;;4.00;;
15645;SDS011;7922;43.622;1.476;2023-05-02T05:24:55;6.37;;;4.67;;
15645;SDS011;7922;43.622;1.476;2023-05-02T05:27:21;6.70;;;4.80;;
15645;SDS011;7922;43.622;1.476;2023-05-02T05:29:46;5.43;;;4.63;;
15645;SDS011;7922;43.622;1.476;2023-05-02T05:32:11;7.47;;;4.20;;
15645;SDS011;7922;43.622;1.476;2023-05-02T05:34:37;6.20;;;4.20;;
15645;SDS011;7922;43.622;1.476;2023-05-02T05:37:02;5.57;;;4.30;;
15645;SDS011;7922;43.622;1.476;2023-05-02T05:39:27;5.17;;;4.30;;
15645;SDS011;7922;43.622;1.476;2023-05-02T05:41:53;5.43;;;4.07;;
15645;SDS011;7922;43.622;1.476;2023-05-02T05:44:18;9.37;;;4.50;;
15645;SDS011;7922;43.622;1.476;2023-05-02T05:46:44;8.30;;;4.67;;
15645;SDS011;7922;43.622;1.476;2023-05-02T05:49:09;6.63;;;4.30;;
15645;SDS011;7922;43.622;1.476;2023-05-02T05:51:34;7.50;;;4.43;;
15645;SDS011;7922;43.622;1.476;2023-05-02T05:54:00;6.07;;;4.60;;
15645;SDS011;7922;43.622;1.476;2023-05-02T05:56:25;6.93;;;4.80;;
15645;SDS011;7922;43.622;1.476;2023-05-02T05:58:50;6.97;;;4.50;;
15645;SDS011;7922;43.622;1.476;2023-05-02T06:01:15;5.90;;;4.10;;
15645;SDS011;7922;43.622;1.476;2023-05-02T06:03:41;6.20;;;4.50;;
15645;SDS011;7922;43.622;1.476;2023-05-02T06:06:06;9.00;;;4.47;;
15645;SDS011;7922;43.622;1.476;2023-05-02T06:08:31;7.20;;;4.97;;
15645;SDS011;7922;43.622;1.476;2023-05-02T06:10:57;5.30;;;4.53;;
15645;SDS011;7922;43.622;1.476;2023-05-02T06:13:22;6.77;;;4.30;;
15645;SDS011;7922;43.622;1.476;2023-05-02T06:15:47;8.37;;;4.70;;
15645;SDS011;7922;43.622;1.476;2023-05-02T06:18:12;10.30;;;4.77;;
15645;SDS011;7922;43.622;1.476;2023-05-02T06:20:38;5.60;;;4.57;;
15645;SDS011;7922;43.622;1.476;2023-05-02T06:23:03;9.27;;;4.47;;
15645;SDS011;7922;43.622;1.476;2023-05-02T06:25:28;7.33;;;3.90;;
15645;SDS011;7922;43.622;1.476;2023-05-02T06:27:54;7.60;;;4.40;;
15645;SDS011;7922;43.622;1.476;2023-05-02T06:30:19;8.87;;;4.23;;
15645;SDS011;7922;43.622;1.476;2023-05-02T06:32:44;5.87;;;4.47;;
15645;SDS011;7922;43.622;1.476;2023-05-02T06:35:09;9.53;;;4.43;;
15645;SDS011;7922;43.622;1.476;2023-05-02T06:37:35;6.17;;;3.97;;
15645;SDS011;7922;43.622;1.476;2023-05-02T06:40:01;10.07;;;4.73;;
15645;SDS011;7922;43.622;1.476;2023-05-02T06:42:26;8.63;;;5.20;;
15645;SDS011;7922;43.622;1.476;2023-05-02T06:44:51;7.87;;;4.87;;
15645;SDS011;7922;43.622;1.476;2023-05-02T06:47:17;6.13;;;4.70;;
15645;SDS011;7922;43.622;1.476;2023-05-02T06:49:42;5.47;;;4.23;;
15645;SDS011;7922;43.622;1.476;2023-05-02T06:52:07;7.33;;;5.07;;
15645;SDS011;7922;43.622;1.476;2023-05-02T06:54:33;5.80;;;4.37;;
15645;SDS011;7922;43.622;1.476;2023-05-02T06:56:58;8.13;;;5.03;;
15645;SDS011;7922;43.622;1.476;2023-05-02T06:59:24;10.97;;;4.83;;
15645;SDS011;7922;43.622;1.476;2023-05-02T07:01:49;7.97;;;4.83;;
15645;SDS011;7922;43.622;1.476;2023-05-02T07:04:14;7.13;;;4.83;;
15645;SDS011;7922;43.622;1.476;2023-05-02T07:06:39;8.53;;;5.00;;
15645;SDS011;7922;43.622;1.476;2023-05-02T07:09:05;6.33;;;5.17;;
15645;SDS011;7922;43.622;1.476;2023-05-02T07:11:30;10.30;;;5.30;;
15645;SDS011;7922;43.622;1.476;2023-05-02T07:13:55;8.67;;;5.23;;
15645;SDS011;7922;43.622;1.476;2023-05-02T07:16:20;8.03;;;5.30;;
15645;SDS011;7922;43.622;1.476;2023-05-02T07:18:46;7.67;;;4.80;;
15645;SDS011;7922;43.622;1.476;2023-05-02T07:21:11;10.37;;;6.20;;
15645;SDS011;7922;43.622;1.476;2023-05-02T07:23:37;7.70;;;4.40;;
15645;SDS011;7922;43.622;1.476;2023-05-02T07:26:02;4.87;;;3.23;;
15645;SDS011;7922;43.622;1.476;2023-05-02T07:28:28;4.70;;;3.03;;
15645;SDS011;7922;43.622;1.476;2023-05-02T07:30:54;4.30;;;3.30;;
15645;SDS011;7922;43.622;1.476;2023-05-02T07:33:19;5.30;;;2.70;;
15645;SDS011;7922;43.622;1.476;2023-05-02T07:35:44;4.03;;;2.97;;
15645;SDS011;7922;43.622;1.476;2023-05-02T07:38:09;6.33;;;3.77;;
15645;SDS011;7922;43.622;1.476;2023-05-02T07:40:35;7.23;;;3.40;;
15645;SDS011;7922;43.622;1.476;2023-05-02T07:43:00;5.77;;;2.83;;
15645;SDS011;7922;43.622;1.476;2023-05-02T07:45:25;6.13;;;3.10;;
15645;SDS011;7922;43.622;1.476;2023-05-02T07:47:51;4.40;;;3.00;;
15645;SDS011;7922;43.622;1.476;2023-05-02T07:50:16;7.27;;;3.40;;
15645;SDS011;7922;43.622;1.476;2023-05-02T07:52:41;3.90;;;3.50;;
15645;SDS011;7922;43.622;1.476;2023-05-02T07:55:07;5.73;;;3.40;;
15645;SDS011;7922;43.622;1.476;2023-05-02T07:57:32;5.07;;;3.27;;
15645;SDS011;7922;43.622;1.476;2023-05-02T07:59:58;5.70;;;3.17;;
15645;SDS011;7922;43.622;1.476;2023-05-02T08:02:23;4.70;;;2.70;;
15645;SDS011;7922;43.622;1.476;2023-05-02T08:04:48;3.70;;;2.77;;
15645;SDS011;7922;43.622;1.476;2023-05-02T08:07:14;5.80;;;3.00;;
15645;SDS011;7922;43.622;1.476;2023-05-02T08:09:39;4.70;;;2.20;;
15645;SDS011;7922;43.622;1.476;2023-05-02T08:12:05;4.47;;;2.77;;
15645;SDS011;7922;43.622;1.476;2023-05-02T08:14:30;5.83;;;2.60;;
15645;SDS011;7922;43.622;1.476;2023-05-02T08:16:55;4.00;;;2.50;;
15645;SDS011;7922;43.622;1.476;2023-05-02T08:19:21;3.23;;;2.43;;
15645;SDS011;7922;43.622;1.476;2023-05-02T08:21:46;5.27;;;2.67;;
15645;SDS011;7922;43.622;1.476;2023-05-02T08:24:12;5.67;;;2.90;;
15645;SDS011;7922;43.622;1.476;2023-05-02T08:26:37;2.30;;;2.10;;
15645;SDS011;7922;43.622;1.476;2023-05-02T08:29:02;5.37;;;2.63;;
15645;SDS011;7922;43.622;1.476;2023-05-02T08:31:27;4.07;;;2.50;;
15645;SDS011;7922;43.622;1.476;2023-05-02T08:33:53;6.00;;;3.00;;
15645;SDS011;7922;43.622;1.476;2023-05-02T08:36:18;3.37;;;3.07;;
15645;SDS011;7922;43.622;1.476;2023-05-02T08:38:44;3.63;;;2.60;;
15645;SDS011;7922;43.622;1.476;2023-05-02T08:41:10;5.50;;;3.00;;
15645;SDS011;7922;43.622;1.476;2023-05-02T08:43:37;5.80;;;2.73;;
15645;SDS011;7922;43.622;1.476;2023-05-02T08:46:03;4.20;;;2.90;;
15645;SDS011;7922;43.622;1.476;2023-05-02T08:48:29;4.47;;;2.83;;
15645;SDS011;7922;43.622;1.476;2023-05-02T08:50:56;4.23;;;2.50;;
15645;SDS011;7922;43.622;1.476;2023-05-02T08:53:23;4.83;;;2.73;;
15645;SDS011;7922;43.622;1.476;2023-05-02T08:55:49;6.00;;;2.70;;
15645;SDS011;7922;43.622;1.476;2023-05-02T08:58:14;5.43;;;2.70;;
15645;SDS011;7922;43.622;1.476;2023-05-02T09:00:40;3.73;;;2.40;;
15645;SDS011;7922;43.622;1.476;2023-05-02T09:05:43;4.00;;;2.30;;
15645;SDS011;7922;43.622;1.476;2023-05-02T09:08:14;2.57;;;2.17;;
15645;SDS011;7922;43.622;1.476;2023-05-02T09:10:46;5.93;;;2.63;;
15645;SDS011;7922;43.622;1.476;2023-05-02T09:13:27;3.67;;;2.80;;
15645;SDS011;7922;43.622;1.476;2023-05-02T09:15:56;5.17;;;2.50;;
15645;SDS011;7922;43.622;1.476;2023-05-02T09:18:32;4.97;;;2.00;;
15645;SDS011;7922;43.622;1.476;2023-05-02T09:20:59;4.13;;;2.10;;
15645;SDS011;7922;43.622;1.476;2023-05-02T09:23:37;5.80;;;2.53;;
15645;SDS011;7922;43.622;1.476;2023-05-02T09:28:46;3.43;;;2.30;;
15645;SDS011;7922;43.622;1.476;2023-05-02T09:31:14;2.73;;;1.90;;
15645;SDS011;7922;43.622;1.476;2023-05-02T09:33:41;3.17;;;2.03;;
15645;SDS011;7922;43.622;1.476;2023-05-02T09:36:07;5.83;;;2.47;;
15645;SDS011;7922;43.622;1.476;2023-05-02T09:38:35;2.93;;;2.33;;
15645;SDS011;7922;43.622;1.476;2023-05-02T09:41:01;3.83;;;2.50;;
15645;SDS011;7922;43.622;1.476;2023-05-02T09:43:27;3.30;;;2.33;;
15645;SDS011;7922;43.622;1.476;2023-05-02T09:51:21;3.10;;;2.30;;
15645;SDS011;7922;43.622;1.476;2023-05-02T09:53:48;3.90;;;1.80;;
15645;SDS011;7922;43.622;1.476;2023-05-02T09:56:13;4.67;;;2.10;;
15645;SDS011;7922;43.622;1.476;2023-05-02T09:58:39;2.77;;;2.00;;
15645;SDS011;7922;43.622;1.476;2023-05-02T10:01:04;2.57;;;2.20;;
15645;SDS011;7922;43.622;1.476;2023-05-02T10:03:29;3.67;;;2.17;;
15645;SDS011;7922;43.622;1.476;2023-05-02T10:05:55;2.60;;;1.87;;
15645;SDS011;7922;43.622;1.476;2023-05-02T10:08:21;3.20;;;1.73;;
15645;SDS011;7922;43.622;1.476;2023-05-02T10:10:53;2.23;;;1.40;;
15645;SDS011;7922;43.622;1.476;2023-05-02T10:13:21;4.17;;;1.90;;
15645;SDS011;7922;43.622;1.476;2023-05-02T10:15:53;3.53;;;1.70;;
15645;SDS011;7922;43.622;1.476;2023-05-02T10:18:27;2.50;;;1.57;;
15645;SDS011;7922;43.622;1.476;2023-05-02T10:21:07;2.80;;;1.60;;
15645;SDS011;7922;43.622;1.476;2023-05-02T10:23:34;3.97;;;1.90;;
15645;SDS011;7922;43.622;1.476;2023-05-02T10:25:59;3.00;;;1.40;;
15645;SDS011;7922;43.622;1.476;2023-05-02T10:28:26;2.20;;;1.53;;
15645;SDS011;7922;43.622;1.476;2023-05-02T10:30:52;2.63;;;1.60;;
15645;SDS011;7922;43.622;1.476;2023-05-02T10:33:19;2.27;;;1.30;;
15645;SDS011;7922;43.622;1.476;2023-05-02T10:35:45;3.90;;;1.83;;
15645;SDS011;7922;43.622;1.476;2023-05-02T10:38:10;3.23;;;1.50;;
15645;SDS011;7922;43.622;1.476;2023-05-02T10:40:38;3.23;;;1.70;;
15645;SDS011;7922;43.622;1.476;2023-05-02T10:43:04;2.43;;;1.70;;
15645;SDS011;7922;43.622;1.476;2023-05-02T10:45:34;2.57;;;1.83;;
15645;SDS011;7922;43.622;1.476;2023-05-02T10:50:46;2.07;;;1.27;;
15645;SDS011;7922;43.622;1.476;2023-05-02T10:53:25;2.73;;;1.57;;
15645;SDS011;7922;43.622;1.476;2023-05-02T10:56:11;1.90;;;1.30;;
15645;SDS011;7922;43.622;1.476;2023-05-02T10:58:39;2.57;;;1.50;;
15645;SDS011;7922;43.622;1.476;2023-05-02T11:03:59;2.53;;;1.43;;
15645;SDS011;7922;43.622;1.476;2023-05-02T11:06:25;3.63;;;1.40;;
15645;SDS011;7922;43.622;1.476;2023-05-02T11:08:52;1.87;;;1.43;;
15645;SDS011;7922;43.622;1.476;2023-05-02T11:11:41;2.53;;;1.40;;
15645;SDS011;7922;43.622;1.476;2023-05-02T11:14:08;2.70;;;1.43;;
15645;SDS011;7922;43.622;1.476;2023-05-02T11:19:21;1.73;;;1.40;;
15645;SDS011;7922;43.622;1.476;2023-05-02T11:21:47;2.87;;;1.43;;
15645;SDS011;7922;43.622;1.476;2023-05-02T11:29:53;2.13;;;1.10;;
15645;SDS011;7922;43.622;1.476;2023-05-02T11:32:19;3.37;;;1.30;;
15645;SDS011;7922;43.622;1.476;2023-05-02T11:34:44;1.90;;;1.30;;
15645;SDS011;7922;43.622;1.476;2023-05-02T11:37:12;2.03;;;1.30;;
15645;SDS011;7922;43.622;1.476;2023-05-02T11:39:38;2.40;;;1.50;;
15645;SDS011;7922;43.622;1.476;2023-05-02T11:42:03;3.33;;;1.60;;
15645;SDS011;7922;43.622;1.476;2023-05-02T11:44:29;2.47;;;1.30;;
15645;SDS011;7922;43.622;1.476;2023-05-02T11:46:54;1.60;;;1.40;;
15645;SDS011;7922;43.622;1.476;2023-05-02T11:49:19;3.17;;;1.40;;
15645;SDS011;7922;43.622;1.476;2023-05-02T11:51:45;2.63;;;1.37;;
15645;SDS011;7922;43.622;1.476;2023-05-02T11:54:16;2.07;;;1.30;;
15645;SDS011;7922;43.622;1.476;2023-05-02T11:56:43;1.73;;;1.30;;
15645;SDS011;7922;43.622;1.476;2023-05-02T11:59:08;3.63;;;1.70;;
15645;SDS011;7922;43.622;1.476;2023-05-02T12:01:33;1.87;;;1.10;;
15645;SDS011;7922;43.622;1.476;2023-05-02T12:04:05;1.90;;;1.03;;
15645;SDS011;7922;43.622;1.476;2023-05-02T12:06:31;2.73;;;1.57;;
15645;SDS011;7922;43.622;1.476;2023-05-02T12:09:07;2.10;;;1.10;;
15645;SDS011;7922;43.622;1.476;2023-05-02T12:11:37;2.37;;;1.17;;
15645;SDS011;7922;43.622;1.476;2023-05-02T12:14:03;1.30;;;1.10;;
15645;SDS011;7922;43.622;1.476;2023-05-02T12:16:29;1.30;;;1.00;;
15645;SDS011;7922;43.622;1.476;2023-05-02T12:18:54;2.97;;;1.10;;
15645;SDS011;7922;43.622;1.476;2023-05-02T12:21:20;1.63;;;0.90;;
15645;SDS011;7922;43.622;1.476;2023-05-02T12:23:45;0.97;;;0.87;;
15645;SDS011;7922;43.622;1.476;2023-05-02T12:26:21;1.63;;;1.13;;
15645;SDS011;7922;43.622;1.476;2023-05-02T12:28:48;2.10;;;1.33;;
15645;SDS011;7922;43.622;1.476;2023-05-02T12:31:14;1.63;;;1.23;;
15645;SDS011;7922;43.622;1.476;2023-05-02T12:33:43;1.60;;;1.23;;
15645;SDS011;7922;43.622;1.476;2023-05-02T12:36:08;1.67;;;1.13;;
15645;SDS011;7922;43.622;1.476;2023-05-02T12:38:33;1.90;;;1.40;;
15645;SDS011;7922;43.622;1.476;2023-05-02T12:40:59;1.40;;;1.07;;
15645;SDS011;7922;43.622;1.476;2023-05-02T12:43:24;1.30;;;1.13;;
15645;SDS011;7922;43.622;1.476;2023-05-02T12:45:52;2.23;;;1.30;;
15645;SDS011;7922;43.622;1.476;2023-05-02T12:48:33;2.53;;;1.10;;
15645;SDS011;7922;43.622;1.476;2023-05-02T12:50:59;2.73;;;1.50;;
15645;SDS011;7922;43.622;1.476;2023-05-02T12:53:43;2.80;;;1.40;;
15645;SDS011;7922;43.622;1.476;2023-05-02T12:56:08;3.40;;;1.00;;
15645;SDS011;7922;43.622;1.476;2023-05-02T13:01:06;1.70;;;1.23;;
15645;SDS011;7922;43.622;1.476;2023-05-02T13:03:32;3.40;;;1.13;;
15645;SDS011;7922;43.622;1.476;2023-05-02T13:05:57;1.93;;;1.00;;
15645;SDS011;7922;43.622;1.476;2023-05-02T13:08:23;2.23;;;1.03;;
15645;SDS011;7922;43.622;1.476;2023-05-02T13:10:48;1.43;;;1.20;;
15645;SDS011;7922;43.622;1.476;2023-05-02T13:13:13;2.00;;;1.10;;
15645;SDS011;7922;43.622;1.476;2023-05-02T13:15:38;2.03;;;1.03;;
15645;SDS011;7922;43.622;1.476;2023-05-02T13:18:04;1.10;;;0.70;;
15645;SDS011;7922;43.622;1.476;2023-05-02T13:20:29;2.10;;;0.83;;
15645;SDS011;7922;43.622;1.476;2023-05-02T13:22:54;1.27;;;0.87;;
15645;SDS011;7922;43.622;1.476;2023-05-02T13:25:19;1.50;;;1.10;;
15645;SDS011;7922;43.622;1.476;2023-05-02T13:27:45;2.30;;;1.23;;
15645;SDS011;7922;43.622;1.476;2023-05-02T13:30:10;2.37;;;1.10;;
15645;SDS011;7922;43.622;1.476;2023-05-02T13:32:36;1.47;;;1.30;;
15645;SDS011;7922;43.622;1.476;2023-05-02T13:35:02;1.77;;;1.03;;
15645;SDS011;7922;43.622;1.476;2023-05-02T13:37:27;3.23;;;1.17;;
15645;SDS011;7922;43.622;1.476;2023-05-02T13:39:52;1.53;;;1.00;;
15645;SDS011;7922;43.622;1.476;2023-05-02T13:42:18;1.03;;;0.97;;
15645;SDS011;7922;43.622;1.476;2023-05-02T13:44:43;2.90;;;1.10;;
15645;SDS011;7922;43.622;1.476;2023-05-02T13:47:08;1.40;;;1.20;;
15645;SDS011;7922;43.622;1.476;2023-05-02T13:49:33;2.67;;;1.47;;
15645;SDS011;7922;43.622;1.476;2023-05-02T13:51:59;1.90;;;1.17;;
15645;SDS011;7922;43.622;1.476;2023-05-02T13:54:24;3.63;;;1.10;;
15645;SDS011;7922;43.622;1.476;2023-05-02T13:56:49;1.40;;;1.30;;
15645;SDS011;7922;43.622;1.476;2023-05-02T13:59:14;1.83;;;1.20;;
15645;SDS011;7922;43.622;1.476;2023-05-02T14:01:40;1.63;;;1.13;;
15645;SDS011;7922;43.622;1.476;2023-05-02T14:04:05;2.73;;;1.63;;
15645;SDS011;7922;43.622;1.476;2023-05-02T14:06:31;1.57;;;1.20;;
15645;SDS011;7922;43.622;1.476;2023-05-02T14:08:57;2.97;;;0.90;;
15645;SDS011;7922;43.622;1.476;2023-05-02T14:11:22;2.47;;;1.60;;
15645;SDS011;7922;43.622;1.476;2023-05-02T14:13:47;4.43;;;1.60;;
15645;SDS011;7922;43.622;1.476;2023-05-02T14:16:13;2.83;;;1.00;;
15645;SDS011;7922;43.622;1.476;2023-05-02T14:18:38;2.50;;;1.03;;
15645;SDS011;7922;43.622;1.476;2023-05-02T14:21:03;0.90;;;0.73;;
15645;SDS011;7922;43.622;1.476;2023-05-02T14:23:29;2.30;;;1.07;;
15645;SDS011;7922;43.622;1.476;2023-05-02T14:25:54;1.40;;;1.10;;
15645;SDS011;7922;43.622;1.476;2023-05-02T14:28:19;1.93;;;1.10;;
15645;SDS011;7922;43.622;1.476;2023-05-02T14:30:48;1.53;;;1.23;;
15645;SDS011;7922;43.622;1.476;2023-05-02T14:33:14;3.30;;;1.40;;
15645;SDS011;7922;43.622;1.476;2023-05-02T14:35:40;2.73;;;1.00;;
15645;SDS011;7922;43.622;1.476;2023-05-02T14:38:05;1.67;;;1.00;;
15645;SDS011;7922;43.622;1.476;2023-05-02T14:40:30;3.90;;;1.43;;
15645;SDS011;7922;43.622;1.476;2023-05-02T14:42:56;1.77;;;1.10;;
15645;SDS011;7922;43.622;1.476;2023-05-02T14:45:21;2.77;;;1.30;;
15645;SDS011;7922;43.622;1.476;2023-05-02T14:47:46;3.13;;;0.90;;
15645;SDS011;7922;43.622;1.476;2023-05-02T14:50:12;1.93;;;0.87;;
15645;SDS011;7922;43.622;1.476;2023-05-02T14:52:37;1.80;;;1.10;;
15645;SDS011;7922;43.622;1.476;2023-05-02T14:55:02;3.20;;;0.90;;
15645;SDS011;7922;43.622;1.476;2023-05-02T14:57:28;2.70;;;1.00;;
15645;SDS011;7922;43.622;1.476;2023-05-02T14:59:53;1.30;;;0.80;;
15645;SDS011;7922;43.622;1.476;2023-05-02T15:02:18;1.90;;;0.90;;
15645;SDS011;7922;43.622;1.476;2023-05-02T15:04:44;1.60;;;0.80;;
15645;SDS011;7922;43.622;1.476;2023-05-02T15:07:09;1.13;;;0.70;;
15645;SDS011;7922;43.622;1.476;2023-05-02T15:09:35;1.77;;;1.00;;
15645;SDS011;7922;43.622;1.476;2023-05-02T15:12:00;1.37;;;1.00;;
15645;SDS011;7922;43.622;1.476;2023-05-02T15:14:25;1.50;;;1.10;;
15645;SDS011;7922;43.622;1.476;2023-05-02T15:16:50;2.90;;;1.00;;
15645;SDS011;7922;43.622;1.476;2023-05-02T15:19:16;1.50;;;1.13;;
15645;SDS011;7922;43.622;1.476;2023-05-02T15:21:41;1.40;;;0.80;;
15645;SDS011;7922;43.622;1.476;2023-05-02T15:24:06;0.80;;;0.80;;
15645;SDS011;7922;43.622;1.476;2023-05-02T15:26:32;0.87;;;0.80;;
15645;SDS011;7922;43.622;1.476;2023-05-02T15:28:57;1.20;;;0.80;;
15645;SDS011;7922;43.622;1.476;2023-05-02T15:31:23;1.17;;;1.00;;
15645;SDS011;7922;43.622;1.476;2023-05-02T15:33:48;1.50;;;1.03;;
15645;SDS011;7922;43.622;1.476;2023-05-02T15:36:14;0.70;;;0.70;;
15645;SDS011;7922;43.622;1.476;2023-05-02T15:38:40;1.00;;;0.90;;
15645;SDS011;7922;43.622;1.476;2023-05-02T15:41:05;1.77;;;0.70;;
15645;SDS011;7922;43.622;1.476;2023-05-02T15:43:30;2.00;;;0.93;;
15645;SDS011;7922;43.622;1.476;2023-05-02T15:45:56;1.57;;;0.90;;
15645;SDS011;7922;43.622;1.476;2023-05-02T15:48:25;1.47;;;0.63;;
15645;SDS011;7922;43.622;1.476;2023-05-02T15:50:52;1.37;;;1.00;;
15645;SDS011;7922;43.622;1.476;2023-05-02T15:53:17;1.50;;;1.10;;
15645;SDS011;7922;43.622;1.476;2023-05-02T15:55:43;1.13;;;1.00;;
15645;SDS011;7922;43.622;1.476;2023-05-02T15:58:08;0.80;;;0.80;;